createdAt,value
2017-04-18T00:00:46.500Z,91.20
2017-04-18T00:01:45.761Z,91.30
2017-04-18T00:02:45.053Z,91.10
2017-04-18T00:03:44.292Z,90.90
2017-04-18T00:04:43.569Z,90.80
2017-04-18T00:05:42.846Z,90.70
2017-04-18T00:06:42.111Z,90.70
2017-04-18T00:07:41.328Z,90.60
2017-04-18T00:08:40.571Z,90.40
2017-04-18T00:09:39.846Z,90.40
2017-04-18T00:10:39.122Z,90.40
2017-04-18T00:11:38.344Z,90.40
2017-04-18T00:12:37.585Z,90.30
2017-04-18T00:13:36.827Z,90.30
2017-04-18T00:14:36.366Z,90.10
2017-04-18T00:15:35.615Z,89.80
2017-04-18T00:16:34.863Z,89.70
2017-04-18T00:17:34.092Z,89.70
2017-04-18T00:18:33.379Z,89.40
2017-04-18T00:19:32.668Z,89.80
2017-04-18T00:20:31.951Z,89.30
2017-04-18T00:21:31.972Z,89.30
2017-04-18T00:22:31.937Z,89.40
2017-04-18T00:23:31.164Z,89.70
2017-04-18T00:24:30.383Z,89.40
2017-04-18T00:25:29.599Z,89.40
2017-04-18T00:26:29.112Z,89.70
2017-04-18T00:27:28.328Z,89.60
2017-04-18T00:28:27.546Z,89.40
2017-04-18T00:29:26.815Z,89.50
2017-04-18T00:30:26.057Z,89.50
2017-04-18T00:31:25.291Z,89.50
2017-04-18T00:32:24.584Z,89.50
2017-04-18T00:33:23.805Z,89.50
2017-04-18T00:34:23.064Z,89.60
2017-04-18T00:35:22.280Z,89.60
2017-04-18T00:36:21.557Z,89.60
2017-04-18T00:37:20.832Z,89.50
2017-04-18T00:38:20.344Z,89.60
2017-04-18T00:39:19.575Z,89.50
2017-04-18T00:40:18.830Z,89.60
2017-04-18T00:41:18.060Z,89.60
2017-04-18T00:42:17.418Z,89.60
2017-04-18T00:43:16.679Z,89.60
2017-04-18T00:44:16.008Z,89.60
2017-04-18T00:45:15.255Z,89.60
2017-04-18T00:46:14.509Z,89.60
2017-04-18T00:47:13.744Z,89.60
2017-04-18T00:48:13.038Z,89.60
2017-04-18T00:49:12.426Z,89.60
2017-04-18T00:50:11.721Z,89.60
2017-04-18T00:51:10.970Z,89.60
2017-04-18T00:52:10.196Z,89.60
2017-04-18T00:53:09.424Z,89.60
2017-04-18T00:54:08.663Z,89.60
2017-04-18T00:55:07.880Z,89.60
2017-04-18T00:56:07.355Z,89.60
2017-04-18T00:57:06.607Z,89.60
2017-04-18T00:58:05.848Z,89.60
2017-04-18T00:59:05.067Z,89.60
2017-04-18T01:00:04.639Z,89.60
2017-04-18T01:01:04.000Z,89.20
2017-04-18T01:02:03.338Z,89.50
2017-04-18T01:03:02.615Z,88.60
2017-04-18T01:04:01.860Z,88.50
2017-04-18T01:05:01.833Z,88.80
2017-04-18T01:06:01.108Z,88.60
2017-04-18T01:07:00.379Z,88.50
2017-04-18T01:07:59.627Z,88.50
2017-04-18T01:08:58.866Z,88.40
2017-04-18T01:09:58.086Z,88.50
2017-04-18T01:10:57.400Z,88.80
2017-04-18T01:11:57.384Z,88.80
2017-04-18T01:12:56.680Z,89.00
2017-04-18T01:13:56.287Z,88.60
2017-04-18T01:14:55.533Z,88.30
2017-04-18T01:15:54.752Z,88.60
2017-04-18T01:16:53.985Z,89.10
2017-04-18T01:17:53.226Z,89.10
2017-04-18T01:18:52.455Z,89.60
2017-04-18T01:19:51.712Z,88.80
2017-04-18T01:20:50.971Z,88.80
2017-04-18T01:21:50.195Z,88.90
2017-04-18T01:22:49.508Z,89.60
2017-04-18T01:23:49.478Z,89.60
2017-04-18T01:24:48.718Z,89.60
2017-04-18T01:25:47.975Z,89.30
2017-04-18T01:26:47.256Z,88.40
2017-04-18T01:27:46.507Z,88.10
2017-04-18T01:28:45.756Z,87.90
2017-04-18T01:29:44.998Z,87.70
2017-04-18T01:30:44.240Z,87.30
2017-04-18T01:31:44.518Z,86.50
2017-04-18T01:32:44.483Z,86.70
2017-04-18T01:33:43.750Z,86.80
2017-04-18T01:34:43.800Z,86.70
2017-04-18T01:35:43.020Z,86.60
2017-04-18T01:36:42.253Z,85.90
2017-04-18T01:37:41.551Z,86.40
2017-04-18T01:38:40.755Z,86.70
2017-04-18T01:39:40.715Z,86.40
2017-04-18T01:40:45.382Z,86.40
2017-04-18T01:41:50.014Z,86.90
2017-04-18T01:42:54.931Z,86.60
2017-04-18T01:43:59.433Z,87.10
2017-04-18T01:46:06.842Z,87.60
2017-04-18T01:47:06.058Z,88.10
2017-04-18T01:48:05.329Z,88.50
2017-04-18T01:49:04.561Z,88.30
2017-04-18T01:50:04.056Z,88.20
2017-04-18T01:51:03.270Z,88.30
2017-04-18T01:52:02.512Z,88.00
2017-04-18T01:53:01.726Z,88.00
2017-04-18T01:54:00.973Z,88.00
2017-04-18T01:55:00.184Z,87.30
2017-04-18T01:56:00.168Z,87.00
2017-04-18T01:56:59.420Z,87.20
2017-04-18T01:57:58.634Z,87.50
2017-04-18T01:58:57.848Z,87.80
2017-04-18T01:59:57.325Z,87.40
2017-04-18T02:00:56.617Z,87.50
2017-04-18T02:01:55.920Z,87.80
2017-04-18T02:02:55.156Z,88.10
2017-04-18T02:03:54.421Z,87.80
2017-04-18T02:04:54.392Z,87.50
2017-04-18T02:05:53.678Z,87.30
2017-04-18T02:06:52.894Z,87.00
2017-04-18T02:07:52.126Z,87.20
2017-04-18T02:08:51.361Z,87.20
2017-04-18T02:09:50.822Z,86.90
2017-04-18T02:10:50.037Z,87.50
2017-04-18T02:11:49.271Z,87.00
2017-04-18T02:12:48.485Z,87.40
2017-04-18T02:13:47.736Z,86.90
2017-04-18T02:14:47.697Z,86.80
2017-04-18T02:15:46.900Z,87.20
2017-04-18T02:16:52.945Z,87.20
2017-04-18T02:17:52.187Z,87.20
2017-04-18T02:18:51.397Z,87.80
2017-04-18T02:19:51.308Z,88.00
2017-04-18T02:20:50.527Z,88.50
2017-04-18T02:21:49.742Z,88.50
2017-04-18T02:22:49.309Z,88.40
2017-04-18T02:23:48.513Z,88.90
2017-04-18T02:24:48.494Z,89.50
2017-04-18T02:25:47.709Z,89.50
2017-04-18T02:26:47.189Z,89.40
2017-04-18T02:27:46.405Z,89.70
2017-04-18T02:28:46.393Z,89.90
2017-04-18T02:29:45.608Z,90.00
2017-04-18T02:30:44.816Z,90.00
2017-04-18T02:31:44.032Z,90.00
2017-04-18T02:32:43.241Z,90.00
2017-04-18T02:33:42.454Z,90.20
2017-04-18T02:34:42.443Z,90.20
2017-04-18T02:35:41.665Z,90.20
2017-04-18T02:36:40.881Z,90.00
2017-04-18T02:37:40.090Z,90.00
2017-04-18T02:38:39.322Z,90.00
2017-04-18T02:39:38.556Z,90.00
2017-04-18T02:40:38.069Z,90.00
2017-04-18T02:41:37.269Z,89.80
2017-04-18T02:42:36.480Z,90.00
2017-04-18T02:43:36.433Z,90.10
2017-04-18T02:44:35.659Z,90.30
2017-04-18T02:45:34.902Z,90.20
2017-04-18T02:46:34.136Z,90.30
2017-04-18T02:47:33.361Z,90.40
2017-04-18T02:48:32.594Z,90.40
2017-04-18T02:49:31.857Z,90.40
2017-04-18T02:50:31.097Z,90.50
2017-04-18T02:51:30.313Z,90.40
2017-04-18T02:52:29.857Z,90.50
2017-04-18T02:53:29.061Z,90.50
2017-04-18T02:54:28.312Z,90.60
2017-04-18T02:55:27.528Z,90.60
2017-04-18T02:56:26.736Z,90.50
2017-04-18T02:57:25.985Z,90.50
2017-04-18T02:58:25.229Z,90.60
2017-04-18T02:59:25.226Z,90.60
2017-04-18T03:00:25.232Z,90.70
2017-04-18T03:01:24.475Z,90.70
2017-04-18T03:02:23.702Z,90.80
2017-04-18T03:03:22.937Z,90.80
2017-04-18T03:04:22.184Z,90.80
2017-04-18T03:05:21.419Z,90.90
2017-04-18T03:06:20.723Z,91.00
2017-04-18T03:07:19.964Z,91.00
2017-04-18T03:08:19.974Z,91.00
2017-04-18T03:09:19.237Z,91.00
2017-04-18T03:10:18.504Z,91.00
2017-04-18T03:11:17.709Z,91.00
2017-04-18T03:12:16.938Z,91.00
2017-04-18T03:13:16.189Z,91.10
2017-04-18T03:14:15.389Z,91.10
2017-04-18T03:15:14.625Z,91.20
2017-04-18T03:16:14.166Z,91.20
2017-04-18T03:17:13.413Z,91.20
2017-04-18T03:18:12.638Z,91.30
2017-04-18T03:19:11.986Z,91.30
2017-04-18T03:20:11.215Z,91.50
2017-04-18T03:21:10.505Z,91.40
2017-04-18T03:22:09.769Z,91.40
2017-04-18T03:23:09.023Z,91.30
2017-04-18T03:24:08.989Z,91.30
2017-04-18T03:25:08.205Z,91.20
2017-04-18T03:26:07.408Z,91.20
2017-04-18T03:27:07.371Z,91.20
2017-04-18T03:28:06.616Z,91.30
2017-04-18T03:29:05.925Z,91.30
2017-04-18T03:30:05.457Z,91.20
2017-04-18T03:31:04.736Z,91.20
2017-04-18T03:32:03.977Z,91.20
2017-04-18T03:33:03.956Z,91.20
2017-04-18T03:34:03.231Z,91.20
2017-04-18T03:35:02.456Z,91.20
2017-04-18T03:36:01.684Z,91.20
2017-04-18T03:37:00.923Z,91.20
2017-04-18T03:38:00.136Z,91.20
2017-04-18T03:38:59.370Z,91.30
2017-04-18T03:39:58.880Z,91.30
2017-04-18T03:40:58.092Z,91.30
2017-04-18T03:41:57.321Z,91.30
2017-04-18T03:42:56.565Z,91.30
2017-04-18T03:43:55.783Z,91.40
2017-04-18T03:44:54.992Z,91.70
2017-04-18T03:45:54.232Z,91.40
2017-04-18T03:46:53.453Z,91.30
2017-04-18T03:47:52.693Z,91.40
2017-04-18T03:48:51.896Z,91.40
2017-04-18T03:49:51.366Z,91.40
2017-04-18T03:50:50.582Z,91.40
2017-04-18T03:51:49.833Z,91.40
2017-04-18T03:52:49.055Z,91.40
2017-04-18T03:53:48.263Z,91.40
2017-04-18T03:54:47.476Z,91.40
2017-04-18T03:55:46.689Z,91.50
2017-04-18T03:56:45.903Z,91.50
2017-04-18T03:57:45.398Z,91.50
2017-04-18T03:58:45.169Z,91.50
2017-04-18T03:59:44.396Z,91.50
2017-04-18T04:00:43.645Z,91.40
2017-04-18T04:01:42.898Z,91.50
2017-04-18T04:02:42.866Z,91.50
2017-04-18T04:03:42.141Z,91.50
2017-04-18T04:04:41.361Z,91.50
2017-04-18T04:05:40.568Z,91.50
2017-04-18T04:06:40.541Z,91.40
2017-04-18T04:07:39.809Z,91.40
2017-04-18T04:08:39.034Z,91.40
2017-04-18T04:09:38.327Z,91.40
2017-04-18T04:10:37.553Z,91.30
2017-04-18T04:11:36.782Z,91.30
2017-04-18T04:12:36.000Z,91.30
2017-04-18T04:13:35.236Z,91.30
2017-04-18T04:14:34.480Z,91.30
2017-04-18T04:15:33.957Z,91.30
2017-04-18T04:16:33.208Z,91.30
2017-04-18T04:17:32.429Z,91.30
2017-04-18T04:18:31.685Z,91.20
2017-04-18T04:19:30.920Z,91.20
2017-04-18T04:20:30.141Z,91.10
2017-04-18T04:21:30.136Z,91.00
2017-04-18T04:22:30.092Z,90.90
2017-04-18T04:23:29.340Z,90.90
2017-04-18T04:24:29.309Z,90.90
2017-04-18T04:25:28.549Z,90.90
2017-04-18T04:26:27.858Z,90.80
2017-04-18T04:27:27.413Z,90.80
2017-04-18T04:28:27.422Z,90.70
2017-04-18T04:29:26.662Z,90.80
2017-04-18T04:30:25.936Z,90.90
2017-04-18T04:31:25.161Z,90.80
2017-04-18T04:32:24.406Z,90.80
2017-04-18T04:33:23.641Z,90.80
2017-04-18T04:34:22.885Z,90.90
2017-04-18T04:35:22.123Z,90.90
2017-04-18T04:36:21.373Z,90.90
2017-04-18T04:37:20.623Z,90.80
2017-04-18T04:38:19.858Z,90.80
2017-04-18T04:39:19.385Z,90.60
2017-04-18T04:40:18.609Z,90.60
2017-04-18T04:41:18.557Z,90.60
2017-04-18T04:42:17.794Z,90.50
2017-04-18T04:43:17.026Z,90.50
2017-04-18T04:44:16.252Z,90.50
2017-04-18T04:45:15.520Z,90.50
2017-04-18T04:46:14.740Z,90.50
2017-04-18T04:47:13.985Z,90.50
2017-04-18T04:48:13.198Z,90.60
2017-04-18T04:49:12.590Z,90.60
2017-04-18T04:50:11.851Z,90.60
2017-04-18T04:51:11.105Z,90.50
2017-04-18T04:52:10.432Z,90.50
2017-04-18T04:53:09.646Z,90.30
2017-04-18T04:54:08.871Z,90.30
2017-04-18T04:55:08.096Z,90.00
2017-04-18T04:56:07.337Z,90.00
2017-04-18T04:57:07.665Z,89.70
2017-04-18T04:58:06.918Z,89.80
2017-04-18T04:59:06.139Z,89.90
2017-04-18T05:00:05.634Z,90.00
2017-04-18T05:01:04.886Z,90.00
2017-04-18T05:02:04.089Z,90.10
2017-04-18T05:03:03.387Z,90.00
2017-04-18T05:04:02.584Z,90.10
2017-04-18T05:05:01.799Z,90.00
2017-04-18T05:06:01.754Z,90.10
2017-04-18T05:07:00.974Z,90.10
2017-04-18T05:08:00.185Z,90.30
2017-04-18T05:09:00.463Z,90.40
2017-04-18T05:09:59.701Z,90.30
2017-04-18T05:10:58.925Z,90.40
2017-04-18T05:11:58.136Z,90.30
2017-04-18T05:12:57.375Z,90.30
2017-04-18T05:13:56.609Z,90.30
2017-04-18T05:14:56.106Z,90.40
2017-04-18T05:15:55.357Z,90.40
2017-04-18T05:16:54.596Z,90.50
2017-04-18T05:17:53.826Z,90.50
2017-04-18T05:18:53.050Z,90.50
2017-04-18T05:19:52.272Z,90.50
2017-04-18T05:20:52.251Z,90.20
2017-04-18T05:21:52.207Z,90.50
2017-04-18T05:22:52.046Z,90.50
2017-04-18T05:23:52.258Z,90.10
2017-04-18T05:24:51.513Z,90.30
2017-04-18T05:25:51.569Z,90.30
2017-04-18T05:26:51.811Z,90.40
2017-04-18T05:27:52.772Z,90.40
2017-04-18T05:28:52.582Z,90.40
2017-04-18T05:29:53.400Z,90.40
2017-04-18T05:30:52.669Z,90.40
2017-04-18T05:31:52.665Z,90.40
2017-04-18T05:32:51.886Z,90.40
2017-04-18T05:33:51.122Z,89.70
2017-04-18T05:34:50.360Z,89.30
2017-04-18T05:35:49.601Z,89.10
2017-04-18T05:36:48.846Z,89.20
2017-04-18T05:37:48.393Z,89.50
2017-04-18T05:38:47.630Z,89.70
2017-04-18T05:39:46.836Z,89.50
2017-04-18T05:40:46.062Z,89.20
2017-04-18T05:41:45.296Z,89.40
2017-04-18T05:42:44.496Z,89.20
2017-04-18T05:43:43.757Z,88.70
2017-04-18T05:44:43.705Z,88.60
2017-04-18T05:45:42.932Z,88.60
2017-04-18T05:46:42.141Z,88.80
2017-04-18T05:47:42.103Z,88.50
2017-04-18T05:48:41.318Z,88.40
2017-04-18T05:49:40.597Z,88.30
2017-04-18T05:50:39.849Z,88.20
2017-04-18T05:51:39.073Z,88.40
2017-04-18T05:52:38.326Z,89.00
2017-04-18T05:53:37.533Z,89.10
2017-04-18T05:54:36.760Z,89.50
2017-04-18T05:55:36.036Z,89.70
2017-04-18T05:56:35.276Z,89.60
2017-04-18T05:57:34.573Z,89.50
2017-04-18T05:58:33.843Z,89.30
2017-04-18T05:59:33.049Z,89.50
2017-04-18T06:00:32.312Z,89.70
2017-04-18T06:01:32.603Z,89.80
2017-04-18T06:02:32.126Z,89.70
2017-04-18T06:03:31.429Z,89.70
2017-04-18T06:04:30.641Z,89.60
2017-04-18T06:05:29.857Z,89.40
2017-04-18T06:06:29.069Z,89.40
2017-04-18T06:07:28.322Z,89.50
2017-04-18T06:08:28.293Z,89.70
2017-04-18T06:09:27.524Z,90.00
2017-04-18T06:10:26.745Z,90.00
2017-04-18T06:11:25.957Z,90.00
2017-04-18T06:12:25.178Z,90.00
2017-04-18T06:13:24.424Z,90.00
2017-04-18T06:14:23.658Z,90.00
2017-04-18T06:15:22.881Z,90.20
2017-04-18T06:16:22.106Z,90.20
2017-04-18T06:17:21.324Z,90.30
2017-04-18T06:18:20.549Z,90.30
2017-04-18T06:19:20.033Z,90.40
2017-04-18T06:20:19.260Z,90.50
2017-04-18T06:21:18.487Z,90.50
2017-04-18T06:22:17.683Z,90.50
2017-04-18T06:23:16.901Z,90.50
2017-04-18T06:24:16.105Z,90.50
2017-04-18T06:25:16.100Z,90.50
2017-04-18T06:26:15.340Z,90.60
2017-04-18T06:27:14.604Z,90.60
2017-04-18T06:28:13.839Z,90.70
2017-04-18T06:29:13.050Z,90.70
2017-04-18T06:30:12.272Z,90.70
2017-04-18T06:31:11.822Z,90.80
2017-04-18T06:32:11.037Z,90.80
2017-04-18T06:33:10.997Z,90.80
2017-04-18T06:34:10.245Z,90.90
2017-04-18T06:35:10.236Z,90.90
2017-04-18T06:36:10.216Z,90.90
2017-04-18T06:37:09.468Z,90.90
2017-04-18T06:38:08.680Z,91.00
2017-04-18T06:39:08.036Z,91.10
2017-04-18T06:40:07.273Z,91.20
2017-04-18T06:41:06.486Z,90.90
2017-04-18T06:42:05.723Z,90.70
2017-04-18T06:43:04.977Z,90.60
2017-04-18T06:44:04.973Z,90.70
2017-04-18T06:45:04.172Z,90.60
2017-04-18T06:46:04.133Z,90.50
2017-04-18T06:47:03.337Z,90.40
2017-04-18T06:48:02.557Z,90.30
2017-04-18T06:49:01.852Z,89.80
2017-04-18T06:50:01.804Z,88.70
2017-04-18T06:51:01.073Z,88.60
2017-04-18T06:52:00.286Z,89.10
2017-04-18T06:52:59.509Z,89.00
2017-04-18T06:53:58.782Z,88.70
2017-04-18T06:54:58.029Z,88.70
2017-04-18T06:55:57.289Z,88.90
2017-04-18T06:56:56.553Z,88.80
2017-04-18T06:57:55.789Z,88.90
2017-04-18T06:58:55.124Z,89.00
2017-04-18T06:59:54.387Z,87.30
2017-04-18T07:00:53.649Z,87.30
2017-04-18T07:01:52.849Z,87.80
2017-04-18T07:02:53.696Z,87.90
2017-04-18T07:03:52.891Z,87.80
2017-04-18T07:04:52.121Z,87.50
2017-04-18T07:05:51.364Z,87.20
2017-04-18T07:06:50.893Z,86.30
2017-04-18T07:07:50.128Z,86.20
2017-04-18T07:08:49.342Z,85.10
2017-04-18T07:09:48.553Z,84.80
2017-04-18T07:10:47.761Z,84.90
2017-04-18T07:11:46.977Z,84.30
2017-04-18T07:12:46.235Z,84.30
2017-04-18T07:13:45.484Z,83.20
2017-04-18T07:14:44.734Z,83.20
2017-04-18T07:15:44.705Z,83.20
2017-04-18T07:16:43.968Z,83.50
2017-04-18T07:17:43.187Z,83.20
2017-04-18T07:18:42.466Z,82.50
2017-04-18T07:19:41.697Z,82.10
2017-04-18T07:20:40.913Z,82.20
2017-04-18T07:21:40.148Z,82.30
2017-04-18T07:22:39.388Z,82.60
2017-04-18T07:23:38.648Z,83.10
2017-04-18T07:24:38.945Z,83.40
2017-04-18T07:25:38.157Z,82.60
2017-04-18T07:26:38.246Z,82.50
2017-04-18T07:27:37.808Z,82.20
2017-04-18T07:28:37.023Z,82.00
2017-04-18T07:29:36.254Z,81.80
2017-04-18T07:30:35.502Z,81.70
2017-04-18T07:31:34.850Z,80.50
2017-04-18T07:32:34.192Z,81.80
2017-04-18T07:33:33.430Z,80.70
2017-04-18T07:34:32.641Z,81.80
2017-04-18T07:35:31.981Z,81.80
2017-04-18T07:36:31.457Z,81.80
2017-04-18T07:37:30.664Z,81.70
2017-04-18T07:38:29.857Z,81.70
2017-04-18T07:39:29.897Z,81.70
2017-04-18T07:40:29.121Z,82.90
2017-04-18T07:41:28.337Z,81.70
2017-04-18T07:42:27.572Z,80.80
2017-04-18T07:43:26.781Z,80.80
2017-04-18T07:44:26.009Z,81.60
2017-04-18T07:45:25.214Z,81.80
2017-04-18T07:46:24.440Z,82.50
2017-04-18T07:47:23.663Z,82.10
2017-04-18T07:48:22.909Z,82.30
2017-04-18T07:49:22.133Z,82.10
2017-04-18T07:50:21.396Z,83.40
2017-04-18T07:51:20.621Z,84.00
2017-04-18T07:52:19.857Z,83.20
2017-04-18T07:53:19.092Z,83.80
2017-04-18T07:54:18.312Z,84.60
2017-04-18T07:55:17.594Z,83.00
2017-04-18T07:56:17.886Z,83.50
2017-04-18T07:57:17.120Z,81.50
2017-04-18T07:58:16.345Z,81.50
2017-04-18T07:59:15.656Z,80.40
2017-04-18T08:00:14.921Z,82.50
2017-04-18T08:01:14.181Z,80.20
2017-04-18T08:02:13.405Z,81.60
2017-04-18T08:03:12.634Z,81.80
2017-04-18T08:04:12.604Z,82.60
2017-04-18T08:05:12.636Z,83.00
2017-04-18T08:06:11.857Z,79.60
2017-04-18T08:07:11.077Z,76.90
2017-04-18T08:08:10.328Z,77.60
2017-04-18T08:09:10.519Z,77.50
2017-04-18T08:10:09.721Z,77.30
2017-04-18T08:11:09.685Z,77.30
2017-04-18T08:12:08.928Z,78.20
2017-04-18T08:13:08.191Z,76.20
2017-04-18T08:14:07.424Z,76.00
2017-04-18T08:15:06.728Z,77.70
2017-04-18T08:16:05.949Z,81.70
2017-04-18T08:17:05.238Z,80.20
2017-04-18T08:18:04.505Z,79.50
2017-04-18T08:19:03.969Z,81.10
2017-04-18T08:20:03.361Z,81.90
2017-04-18T08:21:02.644Z,83.60
2017-04-18T08:22:01.876Z,83.70
2017-04-18T08:23:01.137Z,85.20
2017-04-18T08:24:00.412Z,84.70
2017-04-18T08:24:59.687Z,85.80
2017-04-18T08:25:59.679Z,86.10
2017-04-18T08:26:58.933Z,86.10
2017-04-18T08:27:58.177Z,86.40
2017-04-18T08:28:57.520Z,86.60
2017-04-18T08:29:56.755Z,86.70
2017-04-18T08:30:57.020Z,87.00
2017-04-18T08:31:56.245Z,87.10
2017-04-18T08:32:55.525Z,87.50
2017-04-18T08:33:54.797Z,88.00
2017-04-18T08:34:54.057Z,88.00
2017-04-18T08:35:53.600Z,88.50
2017-04-18T08:36:52.836Z,88.60
2017-04-18T08:37:52.085Z,88.70
2017-04-18T08:38:51.281Z,88.70
2017-04-18T08:39:50.503Z,88.90
2017-04-18T08:40:49.726Z,88.70
2017-04-18T08:41:48.981Z,87.40
2017-04-18T08:42:48.231Z,86.10
2017-04-18T08:43:47.661Z,86.40
2017-04-18T08:44:46.880Z,88.00
2017-04-18T08:45:46.090Z,88.70
2017-04-18T08:46:45.310Z,87.20
2017-04-18T08:47:45.597Z,87.20
2017-04-18T08:48:44.849Z,86.70
2017-04-18T08:49:44.073Z,86.90
2017-04-18T08:50:43.303Z,87.10
2017-04-18T08:51:43.257Z,87.40
2017-04-18T08:52:42.512Z,86.70
2017-04-18T08:53:41.792Z,86.40
2017-04-18T08:54:41.040Z,85.90
2017-04-18T08:55:40.252Z,86.10
2017-04-18T08:56:39.472Z,85.30
2017-04-18T08:57:38.721Z,85.70
2017-04-18T08:58:37.945Z,86.30
2017-04-18T08:59:37.194Z,86.80
2017-04-18T09:00:36.399Z,87.20
2017-04-18T09:01:35.609Z,87.90
2017-04-18T09:02:34.985Z,87.30
2017-04-18T09:03:34.945Z,87.60
2017-04-18T09:04:34.755Z,87.30
2017-04-18T09:05:34.005Z,87.00
2017-04-18T09:06:33.243Z,87.90
2017-04-18T09:07:32.453Z,88.90
2017-04-18T09:08:31.668Z,88.90
2017-04-18T09:09:30.906Z,89.10
2017-04-18T09:10:30.406Z,87.60
2017-04-18T09:11:29.614Z,87.70
2017-04-18T09:12:28.849Z,87.70
2017-04-18T09:13:28.101Z,87.90
2017-04-18T09:14:28.058Z,88.70
2017-04-18T09:15:27.281Z,87.30
2017-04-18T09:16:26.525Z,85.70
2017-04-18T09:17:25.747Z,85.80
2017-04-18T09:18:24.965Z,86.30
2017-04-18T09:19:24.921Z,86.60
2017-04-18T09:20:24.136Z,88.20
2017-04-18T09:21:23.349Z,89.40
2017-04-18T09:22:23.329Z,89.00
2017-04-18T09:23:22.892Z,87.10
2017-04-18T09:24:22.128Z,87.30
2017-04-18T09:25:21.349Z,87.60
2017-04-18T09:26:20.648Z,86.50
2017-04-18T09:27:19.896Z,86.10
2017-04-18T09:28:19.148Z,86.90
2017-04-18T09:29:18.390Z,85.80
2017-04-18T09:30:18.360Z,85.60
2017-04-18T09:31:17.588Z,85.50
2017-04-18T09:32:17.553Z,83.70
2017-04-18T09:33:17.140Z,84.20
2017-04-18T09:34:16.364Z,83.50
2017-04-18T09:35:15.573Z,81.00
2017-04-18T09:36:15.523Z,82.10
2017-04-18T09:37:14.748Z,82.60
2017-04-18T09:38:13.965Z,81.50
2017-04-18T09:39:13.216Z,83.00
2017-04-18T09:40:12.440Z,83.00
2017-04-18T09:41:12.384Z,81.10
2017-04-18T09:42:11.629Z,81.00
2017-04-18T09:43:11.594Z,83.60
2017-04-18T09:44:10.804Z,83.60
2017-04-18T09:45:10.283Z,84.00
2017-04-18T09:46:16.080Z,83.50
2017-04-18T09:47:15.602Z,82.30
2017-04-18T09:48:14.821Z,81.40
2017-04-18T09:49:14.037Z,82.40
2017-04-18T09:50:14.057Z,83.60
2017-04-18T09:51:13.306Z,81.60
2017-04-18T09:52:12.517Z,80.20
2017-04-18T09:53:12.489Z,81.70
2017-04-18T09:54:11.709Z,82.50
2017-04-18T09:55:10.961Z,80.30
2017-04-18T09:56:10.468Z,81.70
2017-04-18T09:57:09.757Z,79.40
2017-04-18T09:58:08.984Z,81.30
2017-04-18T09:59:08.945Z,77.20
2017-04-18T10:00:08.301Z,81.60
2017-04-18T10:01:07.540Z,78.20
2017-04-18T10:02:06.851Z,78.40
2017-04-18T10:03:06.064Z,81.20
2017-04-18T10:04:05.293Z,79.10
2017-04-18T10:05:04.547Z,79.50
2017-04-18T10:06:03.817Z,76.50
2017-04-18T10:07:03.812Z,77.20
2017-04-18T10:08:03.392Z,76.30
2017-04-18T10:09:02.636Z,73.30
2017-04-18T10:10:01.877Z,74.60
2017-04-18T10:11:01.102Z,75.10
2017-04-18T10:12:00.337Z,70.90
2017-04-18T10:12:59.544Z,72.10
2017-04-18T10:13:58.841Z,73.60
2017-04-18T10:14:58.068Z,71.70
2017-04-18T10:15:57.297Z,71.70
2017-04-18T10:16:56.525Z,72.60
2017-04-18T10:17:56.495Z,71.20
2017-04-18T10:18:55.720Z,62.30
2017-04-18T10:19:55.290Z,64.90
2017-04-18T10:20:54.516Z,69.60
2017-04-18T10:21:53.787Z,64.50
2017-04-18T10:22:53.016Z,67.50
2017-04-18T10:23:52.265Z,71.80
2017-04-18T10:24:51.485Z,69.80
2017-04-18T10:25:50.725Z,68.30
2017-04-18T10:26:49.952Z,65.40
2017-04-18T10:27:49.920Z,65.50
2017-04-18T10:28:49.215Z,64.50
2017-04-18T10:29:48.450Z,60.70
2017-04-18T10:30:47.686Z,61.80
2017-04-18T10:31:46.945Z,61.90
2017-04-18T10:32:46.428Z,66.10
2017-04-18T10:33:45.646Z,63.00
2017-04-18T10:34:44.867Z,58.40
2017-04-18T10:35:44.084Z,58.40
2017-04-18T10:36:43.293Z,58.00
2017-04-18T10:37:42.516Z,60.70
2017-04-18T10:38:41.757Z,59.70
2017-04-18T10:39:40.974Z,56.60
2017-04-18T10:40:40.203Z,58.90
2017-04-18T10:41:39.420Z,61.50
2017-04-18T10:42:38.653Z,61.00
2017-04-18T10:43:37.856Z,59.80
2017-04-18T10:44:37.344Z,60.60
2017-04-18T10:45:36.608Z,60.70
2017-04-18T10:46:35.819Z,63.50
2017-04-18T10:47:35.233Z,62.90
2017-04-18T10:48:34.471Z,62.80
2017-04-18T10:49:33.685Z,66.40
2017-04-18T10:50:33.190Z,65.60
2017-04-18T10:51:32.429Z,67.60
2017-04-18T10:52:31.674Z,69.20
2017-04-18T10:53:31.420Z,65.90
2017-04-18T10:54:30.636Z,68.10
2017-04-18T10:55:29.848Z,71.00
2017-04-18T10:56:29.116Z,68.50
2017-04-18T10:57:28.385Z,68.70
2017-04-18T10:58:27.626Z,64.40
2017-04-18T10:59:26.846Z,63.70
2017-04-18T11:00:26.109Z,63.40
2017-04-18T11:01:25.436Z,62.90
2017-04-18T11:02:24.994Z,63.40
2017-04-18T11:03:24.260Z,63.90
2017-04-18T11:04:23.485Z,60.90
2017-04-18T11:05:22.725Z,62.00
2017-04-18T11:06:21.954Z,62.00
2017-04-18T11:07:21.184Z,61.00
2017-04-18T11:08:20.432Z,59.80
2017-04-18T11:09:19.656Z,61.60
2017-04-18T11:10:18.924Z,61.40
2017-04-18T11:11:18.162Z,63.40
2017-04-18T11:12:17.404Z,65.80
2017-04-18T11:13:16.636Z,64.80
2017-04-18T11:14:15.909Z,65.10
2017-04-18T11:15:15.142Z,66.90
2017-04-18T11:16:14.365Z,66.00
2017-04-18T11:17:13.581Z,66.90
2017-04-18T11:18:12.801Z,70.80
2017-04-18T11:19:12.042Z,66.00
2017-04-18T11:20:12.074Z,67.40
2017-04-18T11:21:11.325Z,67.90
2017-04-18T11:22:10.572Z,68.00
2017-04-18T11:23:09.807Z,68.70
2017-04-18T11:24:09.786Z,68.10
2017-04-18T11:25:09.008Z,66.10
2017-04-18T11:26:09.222Z,70.10
2017-04-18T11:27:09.272Z,73.00
2017-04-18T11:28:08.521Z,70.70
2017-04-18T11:29:08.489Z,73.00
2017-04-18T11:30:07.766Z,67.60
2017-04-18T11:31:07.016Z,64.60
2017-04-18T11:32:06.384Z,63.20
2017-04-18T11:33:06.440Z,61.80
2017-04-18T11:34:05.673Z,63.70
2017-04-18T11:35:04.936Z,58.80
2017-04-18T11:36:05.015Z,60.70
2017-04-18T11:37:04.236Z,61.90
2017-04-18T11:38:04.058Z,57.80
2017-04-18T11:39:03.337Z,59.60
2017-04-18T11:40:02.579Z,60.30
2017-04-18T11:41:01.793Z,59.40
2017-04-18T11:42:01.001Z,58.20
2017-04-18T11:43:00.223Z,59.90
2017-04-18T11:43:59.765Z,59.10
2017-04-18T11:44:59.024Z,59.30
2017-04-18T11:45:59.003Z,57.00
2017-04-18T11:46:58.233Z,56.00
2017-04-18T11:47:57.479Z,56.60
2017-04-18T11:48:56.721Z,57.30
2017-04-18T11:49:56.961Z,57.10
2017-04-18T11:50:57.236Z,58.90
2017-04-18T11:51:56.456Z,57.10
2017-04-18T11:52:55.692Z,59.30
2017-04-18T11:53:54.904Z,59.20
2017-04-18T11:54:54.116Z,59.20
2017-04-18T11:55:53.645Z,56.70
2017-04-18T11:56:52.880Z,58.00
2017-04-18T11:57:52.140Z,57.00
2017-04-18T11:58:51.414Z,56.90
2017-04-18T11:59:50.639Z,56.90
2017-04-18T12:00:49.897Z,56.50
2017-04-18T12:01:49.169Z,56.80
2017-04-18T12:02:48.406Z,57.00
2017-04-18T12:03:47.799Z,56.90
2017-04-18T12:04:47.801Z,54.30
2017-04-18T12:05:47.045Z,57.20
2017-04-18T12:06:46.266Z,54.90
2017-04-18T12:07:45.514Z,53.80
2017-04-18T12:08:44.750Z,55.00
2017-04-18T12:09:43.955Z,54.60
2017-04-18T12:10:43.177Z,56.30
2017-04-18T12:11:42.389Z,54.50
2017-04-18T12:12:41.647Z,56.00
2017-04-18T12:13:40.897Z,53.90
2017-04-18T12:14:40.117Z,54.20
2017-04-18T12:15:39.377Z,53.50
2017-04-18T12:16:38.589Z,52.10
2017-04-18T12:17:37.848Z,54.10
2017-04-18T12:18:37.352Z,51.40
2017-04-18T12:19:36.572Z,53.20
2017-04-18T12:20:35.817Z,53.20
2017-04-18T12:21:35.078Z,53.10
2017-04-18T12:22:34.328Z,52.90
2017-04-18T12:23:33.660Z,55.30
2017-04-18T12:24:32.930Z,53.50
2017-04-18T12:25:32.153Z,52.70
2017-04-18T12:26:31.402Z,51.80
2017-04-18T12:27:30.625Z,53.10
2017-04-18T12:28:29.844Z,54.40
2017-04-18T12:29:29.417Z,56.30
2017-04-18T12:30:28.693Z,53.00
2017-04-18T12:31:27.949Z,54.00
2017-04-18T12:32:27.184Z,51.60
2017-04-18T12:33:26.437Z,50.20
2017-04-18T12:34:25.641Z,49.70
2017-04-18T12:35:24.876Z,52.10
2017-04-18T12:36:24.113Z,53.90
2017-04-18T12:37:23.335Z,51.80
2017-04-18T12:38:22.557Z,50.30
2017-04-18T12:39:21.805Z,51.40
2017-04-18T12:40:21.034Z,51.80
2017-04-18T12:41:20.701Z,50.00
2017-04-18T12:42:19.950Z,51.80
2017-04-18T12:43:19.180Z,53.00
2017-04-18T12:44:18.397Z,53.00
2017-04-18T12:45:17.624Z,51.50
2017-04-18T12:46:16.852Z,52.50